createdAt,value
2022-12-31T00:01:27.055Z,3.73
2022-12-31T00:03:54.809Z,3.71
2022-12-31T00:06:26.119Z,3.72
2022-12-31T00:08:55.439Z,3.72
2022-12-31T00:11:23.809Z,3.69
2022-12-31T00:13:50.944Z,3.74
2022-12-31T00:16:21.256Z,3.74
2022-12-31T00:18:51.363Z,3.74
2022-12-31T00:21:19.788Z,3.76
2022-12-31T00:23:47.696Z,3.76
2022-12-31T00:26:17.858Z,3.75
2022-12-31T00:28:45.166Z,3.76
2022-12-31T00:31:15.165Z,3.72
2022-12-31T00:33:42.539Z,3.76
2022-12-31T00:36:15.590Z,3.73
2022-12-31T00:38:45.256Z,3.69
2022-12-31T00:41:13.029Z,3.77
2022-12-31T00:43:39.946Z,3.77
2022-12-31T00:46:07.878Z,3.77
2022-12-31T00:48:36.085Z,3.76
2022-12-31T00:51:05.605Z,3.76
2022-12-31T00:53:32.588Z,3.76
2022-12-31T00:56:01.307Z,3.76
2022-12-31T00:58:28.807Z,3.77
2022-12-31T01:00:55.872Z,3.76
2022-12-31T01:03:23.109Z,3.77
2022-12-31T01:05:50.584Z,3.74
2022-12-31T01:08:18.071Z,3.75
2022-12-31T01:11:09.518Z,3.75
2022-12-31T01:13:36.512Z,3.63
2022-12-31T01:16:11.366Z,3.69
2022-12-31T01:18:39.216Z,3.67
2022-12-31T01:21:09.869Z,3.63
2022-12-31T01:23:36.877Z,3.65
2022-12-31T01:26:06.517Z,3.63
2022-12-31T01:28:34.318Z,3.61
2022-12-31T01:31:12.679Z,3.61
2022-12-31T01:33:40.073Z,3.57
2022-12-31T01:36:25.374Z,3.60
2022-12-31T01:38:55.102Z,3.57
2022-12-31T01:41:28.202Z,3.61
2022-12-31T01:43:58.700Z,3.60
2022-12-31T01:46:46.505Z,3.58
2022-12-31T01:49:46.215Z,3.57
2022-12-31T01:52:28.025Z,3.56
2022-12-31T01:55:05.893Z,3.57
2022-12-31T01:57:33.082Z,3.58
2022-12-31T02:00:01.845Z,3.61
2022-12-31T02:02:29.077Z,3.59
2022-12-31T02:05:00.229Z,3.60
2022-12-31T02:07:27.264Z,3.60
2022-12-31T02:09:54.466Z,3.59
2022-12-31T02:12:21.617Z,3.59
2022-12-31T02:14:51.990Z,3.60
2022-12-31T02:17:28.104Z,3.60
2022-12-31T02:20:13.617Z,3.59
2022-12-31T02:23:17.176Z,3.57
2022-12-31T02:26:04.096Z,3.57
2022-12-31T02:28:43.103Z,3.58
2022-12-31T02:31:24.533Z,3.58
2022-12-31T02:33:57.594Z,3.57
2022-12-31T02:36:30.405Z,3.52
2022-12-31T02:38:58.713Z,3.58
2022-12-31T02:41:44.511Z,3.48
2022-12-31T02:44:39.098Z,3.60
2022-12-31T02:47:09.025Z,3.61
2022-12-31T02:49:48.036Z,3.60
2022-12-31T02:52:23.464Z,3.61
2022-12-31T02:55:03.129Z,3.62
2022-12-31T02:58:08.525Z,3.63
2022-12-31T03:01:01.817Z,3.62
2022-12-31T03:03:29.197Z,3.59
2022-12-31T03:05:57.600Z,3.56
2022-12-31T03:08:26.411Z,3.56
2022-12-31T03:10:53.309Z,3.54
2022-12-31T03:13:20.197Z,3.54
2022-12-31T03:15:47.196Z,3.53
2022-12-31T03:18:16.566Z,3.47
2022-12-31T03:21:07.913Z,3.42
2022-12-31T03:23:40.901Z,3.51
2022-12-31T03:26:11.732Z,3.52
2022-12-31T03:28:41.187Z,3.51
2022-12-31T03:31:08.711Z,3.53
2022-12-31T03:33:37.798Z,3.53
2022-12-31T03:36:09.738Z,3.54
2022-12-31T03:38:37.138Z,3.54
2022-12-31T03:41:04.909Z,3.52
2022-12-31T03:43:32.006Z,3.54
2022-12-31T03:46:01.351Z,3.52
2022-12-31T03:48:28.958Z,3.45
2022-12-31T03:50:56.203Z,3.52
2022-12-31T03:53:23.336Z,3.51
2022-12-31T03:55:54.036Z,3.49
2022-12-31T03:58:21.831Z,3.54
2022-12-31T04:00:49.307Z,3.50
2022-12-31T04:03:16.429Z,3.54
2022-12-31T04:05:43.553Z,3.55
2022-12-31T04:08:10.434Z,3.53
2022-12-31T04:10:37.343Z,3.54
2022-12-31T04:13:04.913Z,3.54
2022-12-31T04:15:32.243Z,3.55
2022-12-31T04:17:59.130Z,3.52
2022-12-31T04:20:26.160Z,3.56
2022-12-31T04:22:53.154Z,3.57
2022-12-31T04:25:20.083Z,3.58
2022-12-31T04:27:47.160Z,3.59
2022-12-31T04:30:15.037Z,3.58
2022-12-31T04:32:42.231Z,3.58
2022-12-31T04:35:10.558Z,3.54
2022-12-31T04:37:37.501Z,3.55
2022-12-31T04:40:07.087Z,3.57
2022-12-31T04:42:34.981Z,3.52
2022-12-31T04:45:01.940Z,3.58
2022-12-31T04:47:28.901Z,3.60
2022-12-31T04:49:55.998Z,3.61
2022-12-31T04:52:23.077Z,3.59
2022-12-31T04:54:50.283Z,3.60
2022-12-31T04:57:17.286Z,3.60
2022-12-31T04:59:44.217Z,3.61
2022-12-31T05:02:11.176Z,3.58
2022-12-31T05:04:38.181Z,3.61
2022-12-31T05:07:05.030Z,3.61
2022-12-31T05:09:31.898Z,3.61
2022-12-31T05:11:58.808Z,3.62
2022-12-31T05:14:25.910Z,3.62
2022-12-31T05:16:52.980Z,3.59
2022-12-31T05:19:19.946Z,3.56
2022-12-31T05:22:07.283Z,3.58
2022-12-31T05:24:34.164Z,3.61
2022-12-31T05:27:01.265Z,3.56
2022-12-31T05:29:28.666Z,3.58
2022-12-31T05:31:55.791Z,3.54
2022-12-31T05:34:22.659Z,3.61
2022-12-31T05:36:49.573Z,3.55
2022-12-31T05:39:16.477Z,3.59
2022-12-31T05:41:43.311Z,3.61
2022-12-31T05:44:10.984Z,3.61
2022-12-31T05:46:37.946Z,3.63
2022-12-31T05:49:05.039Z,3.56
2022-12-31T05:51:32.043Z,3.64
2022-12-31T05:53:58.933Z,3.59
2022-12-31T05:56:25.929Z,3.60
2022-12-31T05:58:53.085Z,3.60
2022-12-31T06:01:20.152Z,3.61
2022-12-31T06:03:47.218Z,3.61
2022-12-31T06:06:14.168Z,3.60
2022-12-31T06:08:41.174Z,3.62
2022-12-31T06:11:08.142Z,3.63
2022-12-31T06:13:35.006Z,3.62
2022-12-31T06:16:06.735Z,3.63
2022-12-31T06:18:33.943Z,3.61
2022-12-31T06:21:01.166Z,3.61
2022-12-31T06:23:28.018Z,3.59
2022-12-31T06:25:54.879Z,3.59
2022-12-31T06:28:21.904Z,3.60
2022-12-31T06:30:49.088Z,3.60
2022-12-31T06:33:15.926Z,3.63
2022-12-31T06:35:42.844Z,3.64
2022-12-31T06:38:10.176Z,3.64
2022-12-31T06:40:37.819Z,3.66
2022-12-31T06:43:05.803Z,3.69
2022-12-31T06:45:32.821Z,3.70
2022-12-31T06:47:59.938Z,3.69
2022-12-31T06:50:26.778Z,3.69
2022-12-31T06:52:53.605Z,3.72
2022-12-31T06:55:20.887Z,3.72
2022-12-31T06:57:48.281Z,3.74
2022-12-31T07:00:16.224Z,3.75
2022-12-31T07:03:25.322Z,3.75
2022-12-31T07:06:10.708Z,3.77
2022-12-31T07:08:49.857Z,3.79
2022-12-31T07:11:29.201Z,3.81
2022-12-31T07:14:02.222Z,3.83
2022-12-31T07:16:55.173Z,3.86
2022-12-31T07:19:41.563Z,3.85
2022-12-31T07:22:13.924Z,3.87
2022-12-31T07:24:41.886Z,3.82
2022-12-31T07:27:48.827Z,3.92
2022-12-31T07:30:43.630Z,3.94
2022-12-31T07:33:50.748Z,3.95
2022-12-31T07:36:41.727Z,3.97
2022-12-31T07:39:16.838Z,3.99
2022-12-31T07:41:52.617Z,4.02
2022-12-31T07:44:40.891Z,4.03
2022-12-31T07:47:20.400Z,4.03
2022-12-31T07:49:47.953Z,4.05
2022-12-31T07:52:15.297Z,4.07
2022-12-31T07:54:42.915Z,4.09
2022-12-31T07:57:12.401Z,4.13
2022-12-31T07:59:57.811Z,4.17
2022-12-31T08:02:49.505Z,4.19
2022-12-31T08:05:27.369Z,4.24
2022-12-31T08:08:29.600Z,4.30
2022-12-31T08:11:14.533Z,4.35
2022-12-31T08:13:42.679Z,4.36
2022-12-31T08:16:13.164Z,4.44
2022-12-31T08:18:40.757Z,4.55
2022-12-31T08:21:18.076Z,4.68
2022-12-31T08:24:03.080Z,4.70
2022-12-31T08:26:48.185Z,4.72
2022-12-31T08:29:44.458Z,4.64
2022-12-31T08:32:20.935Z,4.59
2022-12-31T08:35:35.444Z,4.56
2022-12-31T08:38:20.935Z,4.60
2022-12-31T08:41:16.458Z,4.62
2022-12-31T08:44:16.159Z,4.65
2022-12-31T08:46:45.660Z,4.62
2022-12-31T08:49:15.614Z,4.62
2022-12-31T08:51:43.018Z,4.66
2022-12-31T08:54:12.293Z,4.70
2022-12-31T08:56:54.199Z,4.67
2022-12-31T08:59:30.531Z,4.66
2022-12-31T09:02:08.378Z,4.68
2022-12-31T09:04:56.609Z,4.66
2022-12-31T09:07:34.278Z,4.67
2022-12-31T09:10:20.346Z,4.67
2022-12-31T09:13:08.044Z,4.64
2022-12-31T09:16:04.190Z,4.68
2022-12-31T09:18:34.388Z,4.72
2022-12-31T09:21:01.524Z,4.73
2022-12-31T09:23:28.718Z,4.78
2022-12-31T09:26:00.680Z,4.81
2022-12-31T09:28:45.878Z,4.87
2022-12-31T09:31:31.613Z,4.90
2022-12-31T09:34:21.255Z,4.95
2022-12-31T09:36:55.828Z,4.93
2022-12-31T09:39:29.071Z,4.90
2022-12-31T09:42:07.909Z,4.96
2022-12-31T09:44:37.461Z,4.94
2022-12-31T09:47:28.970Z,5.03
2022-12-31T09:50:27.531Z,5.19
2022-12-31T09:53:13.421Z,5.21
2022-12-31T09:55:49.319Z,5.38
2022-12-31T09:58:22.012Z,5.49
2022-12-31T10:00:58.111Z,5.58
2022-12-31T10:03:43.238Z,5.61
2022-12-31T10:06:34.496Z,5.62
2022-12-31T10:09:07.094Z,5.65
2022-12-31T10:11:52.232Z,5.65
2022-12-31T10:14:46.903Z,5.54
2022-12-31T10:17:23.556Z,5.52
2022-12-31T10:20:15.636Z,5.53
2022-12-31T10:22:42.511Z,5.52
2022-12-31T10:25:39.265Z,5.57
2022-12-31T10:28:18.353Z,5.69
2022-12-31T10:31:13.226Z,5.71
2022-12-31T10:34:04.697Z,5.72
2022-12-31T10:36:45.367Z,5.73
2022-12-31T10:39:42.555Z,5.77
2022-12-31T10:42:47.210Z,5.80
2022-12-31T10:45:45.493Z,5.74
2022-12-31T10:48:52.503Z,5.78
2022-12-31T10:51:44.899Z,5.75
2022-12-31T10:54:36.452Z,5.82
2022-12-31T10:57:37.538Z,5.75
2022-12-31T11:00:21.681Z,5.72
2022-12-31T11:03:03.315Z,5.75
2022-12-31T11:06:07.609Z,5.74
2022-12-31T11:09:09.894Z,5.75
2022-12-31T11:11:42.845Z,5.79
2022-12-31T11:14:31.458Z,5.79
2022-12-31T11:17:21.777Z,5.87
2022-12-31T11:19:54.522Z,5.96
2022-12-31T11:22:36.486Z,5.99
2022-12-31T11:25:12.473Z,5.92
2022-12-31T11:27:53.824Z,5.99
2022-12-31T11:31:02.489Z,6.15
2022-12-31T11:33:35.289Z,6.22
2022-12-31T11:36:39.507Z,6.37
2022-12-31T11:39:42.571Z,6.40
2022-12-31T11:42:16.326Z,6.41
2022-12-31T11:44:56.033Z,6.37
2022-12-31T11:48:04.265Z,6.44
2022-12-31T11:50:59.310Z,6.48
2022-12-31T11:53:39.898Z,6.55
2022-12-31T11:56:19.203Z,6.61
2022-12-31T11:58:54.329Z,6.59
2022-12-31T12:01:42.287Z,6.59
2022-12-31T12:04:11.142Z,6.53
2022-12-31T12:06:40.283Z,6.55
2022-12-31T12:09:13.587Z,6.66
2022-12-31T12:11:41.101Z,6.65
2022-12-31T12:14:32.330Z,6.77
2022-12-31T12:17:04.753Z,6.82
2022-12-31T12:19:35.077Z,6.94
2022-12-31T12:22:22.028Z,6.97
2022-12-31T12:25:04.005Z,6.97
2022-12-31T12:27:33.669Z,6.92
2022-12-31T12:30:30.119Z,6.96
2022-12-31T12:33:00.599Z,6.94
2022-12-31T12:35:35.821Z,6.89
2022-12-31T12:38:12.657Z,6.93
2022-12-31T12:40:40.158Z,6.87
2022-12-31T12:43:22.580Z,6.96
2022-12-31T12:45:52.438Z,6.98
2022-12-31T12:48:30.064Z,7.09
2022-12-31T12:50:58.001Z,7.21
2022-12-31T12:54:14.847Z,7.37
2022-12-31T12:56:59.992Z,7.46
2022-12-31T13:10:03.318Z,8.02
2022-12-31T13:13:21.941Z,8.02
2022-12-31T13:15:42.618Z,7.34
2022-12-31T13:18:26.280Z,7.36
2022-12-31T13:21:19.886Z,7.34
2022-12-31T13:24:04.877Z,7.33
2022-12-31T13:26:38.964Z,7.25
2022-12-31T13:29:09.236Z,7.28
2022-12-31T13:31:39.701Z,7.31
2022-12-31T13:34:17.365Z,7.35
2022-12-31T13:36:48.532Z,7.38
2022-12-31T13:39:28.656Z,7.38
2022-12-31T13:42:09.061Z,7.39
2022-12-31T13:44:47.815Z,7.42
2022-12-31T13:47:30.503Z,7.44
2022-12-31T13:50:14.832Z,7.40
2022-12-31T13:52:49.143Z,7.39
2022-12-31T13:55:23.029Z,7.38
2022-12-31T13:57:58.399Z,7.38
2022-12-31T14:00:30.113Z,7.38
2022-12-31T14:03:14.289Z,7.31
2022-12-31T14:05:56.438Z,7.25
2022-12-31T14:08:23.469Z,7.16
2022-12-31T14:10:53.117Z,7.10
2022-12-31T14:13:35.556Z,7.06
2022-12-31T14:16:28.516Z,7.03
2022-12-31T14:19:03.027Z,7.01
2022-12-31T14:21:47.197Z,7.06
2022-12-31T14:24:26.259Z,7.05
2022-12-31T14:26:58.437Z,7.04
2022-12-31T14:29:48.187Z,7.01
2022-12-31T14:32:30.993Z,7.00
2022-12-31T14:35:03.485Z,7.02
2022-12-31T14:37:38.782Z,7.03
2022-12-31T14:40:12.745Z,7.00
2022-12-31T14:43:04.645Z,6.97
2022-12-31T14:45:53.052Z,6.90
2022-12-31T14:48:28.871Z,6.85
2022-12-31T14:51:01.986Z,6.78
2022-12-31T14:53:29.643Z,6.70
2022-12-31T14:56:19.023Z,6.66
2022-12-31T14:58:56.389Z,6.62
2022-12-31T15:01:26.055Z,6.58
2022-12-31T15:03:58.163Z,6.53
2022-12-31T15:06:44.564Z,6.54
2022-12-31T15:09:28.206Z,6.54
2022-12-31T15:12:00.861Z,6.50
2022-12-31T15:15:05.353Z,6.55
2022-12-31T15:17:48.042Z,6.56
2022-12-31T15:20:45.691Z,6.56
2022-12-31T15:23:21.278Z,6.42
2022-12-31T15:25:52.094Z,6.51
2022-12-31T15:28:35.573Z,6.49
2022-12-31T15:31:07.420Z,6.49
2022-12-31T15:33:53.979Z,6.47
2022-12-31T15:36:25.350Z,6.44
2022-12-31T15:39:05.529Z,6.42
2022-12-31T15:42:18.795Z,6.38
2022-12-31T15:44:53.286Z,6.39
2022-12-31T15:47:36.575Z,6.32
2022-12-31T15:50:07.968Z,6.34
2022-12-31T15:52:48.975Z,6.32
2022-12-31T15:55:25.889Z,6.24
2022-12-31T15:58:00.301Z,6.19
2022-12-31T16:00:38.366Z,6.13
2022-12-31T16:03:21.187Z,6.03
2022-12-31T16:05:48.843Z,5.95
2022-12-31T16:08:28.497Z,5.90
2022-12-31T16:10:55.706Z,5.86
2022-12-31T16:13:26.209Z,5.80
2022-12-31T16:16:03.496Z,5.75
2022-12-31T16:18:39.043Z,5.73
2022-12-31T16:21:06.592Z,5.70
2022-12-31T16:23:50.013Z,5.64
2022-12-31T16:26:16.971Z,5.55
2022-12-31T16:28:48.755Z,5.46
2022-12-31T16:31:18.966Z,5.36
2022-12-31T16:33:47.124Z,5.36
2022-12-31T16:36:22.961Z,5.32
2022-12-31T16:38:50.096Z,5.28
2022-12-31T16:41:19.974Z,5.25
2022-12-31T16:43:49.160Z,5.22
2022-12-31T16:46:21.887Z,5.28
2022-12-31T16:48:53.520Z,5.33
2022-12-31T16:51:24.334Z,5.31
2022-12-31T16:53:52.069Z,5.32
2022-12-31T16:56:39.318Z,5.32
2022-12-31T16:59:23.992Z,5.31
2022-12-31T17:01:52.432Z,5.26
2022-12-31T17:04:21.155Z,5.20
2022-12-31T17:06:48.216Z,5.17
2022-12-31T17:09:21.471Z,5.21
2022-12-31T17:11:52.930Z,5.07
2022-12-31T17:14:28.072Z,5.13
2022-12-31T17:17:04.523Z,5.03
2022-12-31T17:19:43.332Z,4.97
2022-12-31T17:22:29.793Z,4.87
2022-12-31T17:25:03.741Z,4.86
2022-12-31T17:27:31.373Z,4.83
2022-12-31T17:30:35.285Z,4.83
2022-12-31T17:33:24.794Z,4.82
2022-12-31T17:36:16.346Z,4.85
2022-12-31T17:38:43.865Z,4.88
2022-12-31T17:41:23.268Z,4.95
2022-12-31T17:43:55.272Z,4.95
2022-12-31T17:46:23.585Z,4.93
2022-12-31T17:48:56.127Z,4.93
2022-12-31T17:51:24.130Z,4.93
2022-12-31T17:53:51.383Z,4.87
2022-12-31T17:56:19.796Z,4.82
2022-12-31T17:58:52.378Z,4.83
2022-12-31T18:01:22.781Z,4.84
2022-12-31T18:03:50.153Z,4.85
2022-12-31T18:06:19.590Z,4.85
2022-12-31T18:08:47.243Z,4.88
2022-12-31T18:11:18.282Z,4.87
2022-12-31T18:13:45.852Z,4.89
2022-12-31T18:16:12.875Z,4.88
2022-12-31T18:18:41.877Z,4.80
2022-12-31T18:21:18.613Z,4.76
2022-12-31T18:23:47.175Z,4.74
2022-12-31T18:26:19.966Z,4.74
2022-12-31T18:28:48.180Z,4.72
2022-12-31T18:31:27.559Z,4.69
2022-12-31T18:33:56.930Z,4.64
2022-12-31T18:36:24.747Z,4.61
2022-12-31T18:38:51.893Z,4.57
2022-12-31T18:41:21.555Z,4.53
2022-12-31T18:43:49.099Z,4.51
2022-12-31T18:46:18.668Z,4.51
2022-12-31T18:48:45.981Z,4.52
2022-12-31T18:51:31.311Z,4.53
2022-12-31T18:54:00.475Z,4.58
2022-12-31T18:56:28.326Z,4.57
2022-12-31T18:58:55.608Z,4.54
2022-12-31T19:01:34.082Z,4.53
2022-12-31T19:04:11.667Z,4.51
2022-12-31T19:06:38.591Z,4.43
2022-12-31T19:09:17.962Z,4.43
2022-12-31T19:11:53.455Z,4.39
2022-12-31T19:14:24.273Z,4.36
2022-12-31T19:16:53.450Z,4.29
2022-12-31T19:19:21.161Z,4.23
2022-12-31T19:21:48.465Z,4.21
2022-12-31T19:24:20.757Z,4.16
2022-12-31T19:26:48.426Z,4.14
2022-12-31T19:29:27.636Z,4.11
2022-12-31T19:31:54.840Z,4.05
2022-12-31T19:34:21.891Z,4.04
2022-12-31T19:36:49.098Z,3.99
2022-12-31T19:39:18.990Z,3.98
2022-12-31T19:41:49.158Z,3.94
2022-12-31T19:44:21.399Z,3.91
2022-12-31T19:46:49.420Z,3.88
2022-12-31T19:49:16.639Z,3.92
2022-12-31T19:51:43.608Z,3.86
2022-12-31T19:54:12.924Z,3.81
2022-12-31T19:56:39.828Z,3.76
2022-12-31T19:59:09.036Z,3.72
2022-12-31T20:01:36.647Z,3.70
2022-12-31T20:04:03.960Z,3.70
2022-12-31T20:06:30.835Z,3.62
2022-12-31T20:08:57.711Z,3.57
2022-12-31T20:11:25.037Z,3.49
2022-12-31T20:13:53.943Z,3.46
2022-12-31T20:16:24.071Z,3.45
2022-12-31T20:18:51.366Z,3.51
2022-12-31T20:21:23.945Z,3.45
2022-12-31T20:23:52.394Z,3.28
2022-12-31T20:26:20.681Z,3.29
2022-12-31T20:28:48.698Z,3.18
2022-12-31T20:31:19.125Z,3.22
2022-12-31T20:33:46.173Z,3.15
2022-12-31T20:36:15.064Z,3.15
2022-12-31T20:38:42.063Z,3.12
2022-12-31T20:41:12.066Z,3.03
2022-12-31T20:43:39.586Z,3.05
2022-12-31T20:46:19.697Z,3.04
2022-12-31T20:48:48.447Z,2.98
2022-12-31T20:51:17.189Z,2.91
2022-12-31T20:53:49.439Z,2.91
2022-12-31T20:56:17.426Z,2.97
2022-12-31T20:58:45.211Z,3.01
2022-12-31T21:01:13.588Z,2.99
2022-12-31T21:06:30.542Z,2.94
2022-12-31T21:08:59.635Z,2.90
2022-12-31T21:11:46.310Z,2.87
2022-12-31T21:14:13.351Z,2.86
2022-12-31T21:16:40.347Z,2.86
2022-12-31T21:19:07.337Z,2.88
2022-12-31T21:21:34.251Z,2.89
2022-12-31T21:24:01.212Z,2.86
2022-12-31T21:26:29.233Z,2.81
2022-12-31T21:28:56.379Z,2.80
2022-12-31T21:31:23.442Z,2.77
2022-12-31T21:33:50.386Z,2.86
2022-12-31T21:36:17.259Z,2.91
2022-12-31T21:38:44.350Z,2.98
2022-12-31T21:41:33.498Z,3.03
2022-12-31T21:44:04.468Z,3.03
2022-12-31T21:46:31.534Z,3.09
2022-12-31T21:49:00.132Z,3.04
2022-12-31T21:51:27.857Z,3.02
2022-12-31T21:53:54.930Z,2.96
2022-12-31T21:56:22.677Z,2.98
2022-12-31T21:59:16.063Z,2.97
2022-12-31T22:02:02.298Z,2.95
2022-12-31T22:05:01.532Z,2.86
2022-12-31T22:07:16.157Z,2.86
2022-12-31T22:09:43.053Z,2.85
2022-12-31T22:12:09.990Z,2.87
2022-12-31T22:14:36.903Z,2.91
2022-12-31T22:17:03.789Z,2.91
2022-12-31T22:19:43.505Z,2.94
2022-12-31T22:22:19.552Z,2.90
2022-12-31T22:24:46.436Z,2.90
2022-12-31T22:27:28.874Z,2.89
2022-12-31T22:29:56.844Z,2.89
2022-12-31T22:32:23.788Z,2.83
2022-12-31T22:34:50.646Z,2.80
2022-12-31T22:37:46.560Z,2.77
2022-12-31T22:40:05.010Z,2.73
2022-12-31T22:42:31.975Z,2.73
2022-12-31T22:44:58.769Z,2.69
2022-12-31T22:47:25.693Z,2.65
2022-12-31T22:49:52.690Z,2.56
2022-12-31T22:52:19.693Z,2.55
2022-12-31T22:54:46.620Z,2.50
2022-12-31T22:57:19.802Z,2.43
2022-12-31T22:59:48.018Z,2.42
2022-12-31T23:02:16.399Z,2.41
2022-12-31T23:04:43.559Z,2.37
2022-12-31T23:07:10.540Z,2.34
2022-12-31T23:09:56.299Z,2.32
2022-12-31T23:12:23.235Z,2.26
2022-12-31T23:15:09.120Z,2.22
2022-12-31T23:17:54.798Z,2.16
2022-12-31T23:20:42.196Z,2.10
2022-12-31T23:23:14.859Z,2.01
2022-12-31T23:25:47.390Z,2.00
2022-12-31T23:28:17.252Z,1.98
2022-12-31T23:30:44.936Z,1.96
2022-12-31T23:33:20.749Z,1.93
2022-12-31T23:35:48.166Z,1.90
2022-12-31T23:38:17.474Z,1.92
2022-12-31T23:40:45.133Z,1.93
2022-12-31T23:43:20.425Z,1.90
2022-12-31T23:45:51.823Z,1.82
2022-12-31T23:48:18.847Z,1.79
2022-12-31T23:50:52.923Z,1.80
2022-12-31T23:53:20.864Z,1.69
2022-12-31T23:55:47.777Z,1.75
2022-12-31T23:58:15.448Z,1.74
